createdAt,value
2023-02-14T00:01:45.495Z,99585.06
2023-02-14T00:04:13.954Z,99577.06
2023-02-14T00:06:43.014Z,99578.78
2023-02-14T00:09:14.601Z,99577.94
2023-02-14T00:11:43.116Z,99580.53
2023-02-14T00:14:29.792Z,99581.34
2023-02-14T00:16:59.659Z,99583.09
2023-02-14T00:19:28.801Z,99577.81
2023-02-14T00:21:57.011Z,99583.06
2023-02-14T00:24:27.773Z,99582.19
2023-02-14T00:26:56.211Z,99583.06
2023-02-14T00:29:27.337Z,99588.28
2023-02-14T00:31:55.802Z,99585.72
2023-02-14T00:34:26.051Z,99589.28
2023-02-14T00:36:54.417Z,99596.31
2023-02-14T00:39:22.772Z,99592.88
2023-02-14T00:41:51.017Z,99584.34
2023-02-14T00:44:20.353Z,99588.72
2023-02-14T00:46:48.615Z,99586.22
2023-02-14T00:49:16.921Z,99586.28
2023-02-14T00:51:46.640Z,99583.66
2023-02-14T00:54:14.937Z,99587.19
2023-02-14T00:56:43.278Z,99579.34
2023-02-14T00:59:12.666Z,99581.97
2023-02-14T01:01:41.526Z,99578.47
2023-02-14T01:04:09.816Z,99586.28
2023-02-14T01:06:38.203Z,99588.03
2023-02-14T01:09:07.840Z,99588.03
2023-02-14T01:11:36.274Z,99591.50
2023-02-14T01:14:04.773Z,99590.63
2023-02-14T01:16:33.044Z,99587.13
2023-02-14T01:19:02.260Z,99593.22
2023-02-14T01:21:32.909Z,99588.88
2023-02-14T01:24:05.487Z,99594.06
2023-02-14T01:26:36.638Z,99585.28
2023-02-14T01:29:05.736Z,99590.47
2023-02-14T01:31:35.874Z,99589.66
2023-02-14T01:34:04.826Z,99583.53
2023-02-14T01:36:37.301Z,99578.34
2023-02-14T01:39:09.604Z,99584.47
2023-02-14T01:41:41.423Z,99570.50
2023-02-14T01:44:55.716Z,99567.88
2023-02-14T01:47:24.779Z,99572.31
2023-02-14T01:49:58.529Z,99573.16
2023-02-14T01:52:30.663Z,99581.84
2023-02-14T01:55:04.638Z,99571.31
2023-02-14T01:57:40.689Z,99577.31
2023-02-14T02:00:28.267Z,99581.72
2023-02-14T02:02:58.196Z,99581.72
2023-02-14T02:05:27.456Z,99574.94
2023-02-14T02:08:00.393Z,99571.66
2023-02-14T02:10:28.853Z,99577.72
2023-02-14T02:13:04.495Z,99581.31
2023-02-14T02:15:41.868Z,99578.78
2023-02-14T02:18:18.783Z,99571.91
2023-02-14T02:21:42.866Z,99566.72
2023-02-14T02:24:22.902Z,99564.16
2023-02-14T02:27:43.094Z,99572.06
2023-02-14T02:30:37.527Z,99565.97
2023-02-14T02:34:08.079Z,99564.16
2023-02-14T02:36:57.831Z,99555.38
2023-02-14T02:39:51.099Z,99557.03
2023-02-14T02:42:30.907Z,99549.97
2023-02-14T02:45:09.779Z,99548.22
2023-02-14T02:47:45.406Z,99556.97
2023-02-14T02:50:41.817Z,99555.16
2023-02-14T02:53:20.954Z,99552.50
2023-02-14T02:56:12.888Z,99549.78
2023-02-14T02:58:46.184Z,99553.19
2023-02-14T03:01:19.992Z,99543.50
2023-02-14T03:04:09.006Z,99548.66
2023-02-14T03:06:37.326Z,99552.09
2023-02-14T03:09:33.610Z,99548.66
2023-02-14T03:12:14.032Z,99549.53
2023-02-14T03:14:51.939Z,99547.72
2023-02-14T03:17:48.558Z,99550.28
2023-02-14T03:20:22.264Z,99551.06
2023-02-14T03:22:59.705Z,99547.56
2023-02-14T03:25:40.982Z,99550.19
2023-02-14T03:28:16.701Z,99545.78
2023-02-14T03:30:55.118Z,99542.25
2023-02-14T03:33:31.741Z,99549.16
2023-02-14T03:36:05.488Z,99552.63
2023-02-14T03:38:42.218Z,99553.47
2023-02-14T03:41:16.592Z,99561.28
2023-02-14T03:43:50.508Z,99555.97
2023-02-14T03:46:25.204Z,99556.84
2023-02-14T03:48:57.778Z,99555.94
2023-02-14T03:51:27.618Z,99552.41
2023-02-14T03:53:59.102Z,99544.44
2023-02-14T03:56:35.944Z,99553.13
2023-02-14T03:59:10.441Z,99559.19
2023-02-14T04:01:46.651Z,99546.03
2023-02-14T04:04:19.214Z,99552.06
2023-02-14T04:06:47.464Z,99552.88
2023-02-14T04:09:15.706Z,99555.44
2023-02-14T04:11:46.478Z,99556.28
2023-02-14T04:14:14.729Z,99553.63
2023-02-14T04:16:56.929Z,99552.69
2023-02-14T04:19:25.143Z,99547.41
2023-02-14T04:21:54.386Z,99547.34
2023-02-14T04:24:22.669Z,99539.41
2023-02-14T04:27:12.253Z,99543.75
2023-02-14T04:29:43.516Z,99543.75
2023-02-14T04:32:14.263Z,99546.31
2023-02-14T04:34:42.780Z,99543.63
2023-02-14T04:37:11.210Z,99539.19
2023-02-14T04:39:39.873Z,99539.19
2023-02-14T04:42:09.947Z,99537.44
2023-02-14T04:44:39.111Z,99541.69
2023-02-14T04:47:08.515Z,99536.41
2023-02-14T04:49:37.345Z,99543.28
2023-02-14T04:52:06.109Z,99531.91
2023-02-14T04:54:35.051Z,99534.47
2023-02-14T04:57:03.314Z,99530.88
2023-02-14T04:59:32.970Z,99529.06
2023-02-14T05:02:01.202Z,99521.19
2023-02-14T05:04:29.432Z,99517.59
2023-02-14T05:06:57.696Z,99511.47
2023-02-14T05:09:25.966Z,99515.81
2023-02-14T05:11:54.178Z,99520.16
2023-02-14T05:14:22.764Z,99514.91
2023-02-14T05:16:52.372Z,99518.38
2023-02-14T05:19:20.856Z,99519.22
2023-02-14T05:21:49.089Z,99517.47
2023-02-14T05:24:17.469Z,99519.16
2023-02-14T05:26:45.803Z,99522.66
2023-02-14T05:29:14.037Z,99516.53
2023-02-14T05:31:42.354Z,99518.31
2023-02-14T05:34:12.046Z,99514.03
2023-02-14T05:36:40.308Z,99511.34
2023-02-14T05:39:08.550Z,99515.72
2023-02-14T05:44:05.110Z,99517.41
2023-02-14T05:46:33.348Z,99525.22
2023-02-14T05:49:01.569Z,99522.59
2023-02-14T05:51:31.187Z,99524.34
2023-02-14T05:54:01.323Z,99527.91
2023-02-14T05:56:29.619Z,99521.78
2023-02-14T05:58:57.842Z,99527.91
2023-02-14T06:01:26.062Z,99533.94
2023-02-14T06:03:54.338Z,99532.16
2023-02-14T06:06:22.552Z,99534.72
2023-02-14T06:08:52.153Z,99531.22
2023-02-14T06:11:20.404Z,99527.66
2023-02-14T06:13:48.665Z,99524.97
2023-02-14T06:16:17.005Z,99533.63
2023-02-14T06:18:45.315Z,99537.09
2023-02-14T06:21:13.561Z,99533.50
2023-02-14T06:23:41.859Z,99537.84
2023-02-14T06:26:11.465Z,99537.78
2023-02-14T06:28:39.672Z,99543.03
2023-02-14T06:31:08.011Z,99535.13
2023-02-14T06:33:36.287Z,99540.34
2023-02-14T06:36:04.860Z,99541.19
2023-02-14T06:38:33.125Z,99528.88
2023-02-14T06:41:05.431Z,99541.06
2023-02-14T06:43:35.870Z,99542.81
2023-02-14T06:46:05.037Z,99547.13
2023-02-14T06:48:33.405Z,99542.75
2023-02-14T06:51:01.932Z,99549.75
2023-02-14T06:53:30.540Z,99543.63
2023-02-14T06:55:58.796Z,99543.56
2023-02-14T06:58:27.164Z,99538.34
2023-02-14T07:00:58.740Z,99537.44
2023-02-14T07:03:27.701Z,99538.34
2023-02-14T07:05:56.200Z,99532.97
2023-02-14T07:08:26.222Z,99528.69
2023-02-14T07:10:58.204Z,99525.22
2023-02-14T07:13:27.097Z,99522.66
2023-02-14T07:15:55.447Z,99527.84
2023-02-14T07:18:25.120Z,99518.28
2023-02-14T07:20:53.464Z,99531.38
2023-02-14T07:23:21.773Z,99526.06
2023-02-14T07:25:50.039Z,99528.69
2023-02-14T07:28:18.262Z,99518.16
2023-02-14T07:30:46.705Z,99511.19
2023-02-14T07:33:15.334Z,99511.97
2023-02-14T07:35:45.001Z,99519.13
2023-02-14T07:38:13.273Z,99524.44
2023-02-14T07:40:41.577Z,99519.19
2023-02-14T07:43:09.829Z,99520.09
2023-02-14T07:45:38.093Z,99514.84
2023-02-14T07:48:07.323Z,99516.81
2023-02-14T07:50:35.542Z,99510.63
2023-02-14T07:53:05.098Z,99513.38
2023-02-14T07:55:33.345Z,99503.75
2023-02-14T07:58:01.736Z,99508.06
2023-02-14T08:00:30.132Z,99510.63
2023-02-14T08:02:58.374Z,99513.25
2023-02-14T08:05:26.625Z,99512.34
2023-02-14T08:07:54.929Z,99513.19
2023-02-14T08:10:24.593Z,99519.44
2023-02-14T08:13:02.088Z,99501.97
2023-02-14T08:15:50.603Z,99499.34
2023-02-14T08:18:20.119Z,99502.78
2023-02-14T08:20:49.825Z,99510.56
2023-02-14T08:23:19.560Z,99499.22
2023-02-14T08:25:49.956Z,99505.28
2023-02-14T08:28:18.474Z,99507.84
2023-02-14T08:30:47.312Z,99501.66
2023-02-14T08:33:15.890Z,99510.41
2023-02-14T08:35:44.180Z,99504.34
2023-02-14T08:38:12.760Z,99504.28
2023-02-14T08:40:41.624Z,99504.22
2023-02-14T08:43:11.905Z,99512.91
2023-02-14T08:45:40.680Z,99511.09
2023-02-14T08:48:12.342Z,99515.28
2023-02-14T08:50:41.846Z,99503.84
2023-02-14T08:53:11.226Z,99499.34
2023-02-14T08:55:40.568Z,99499.22
2023-02-14T08:58:10.613Z,99504.34
2023-02-14T09:00:39.187Z,99502.53
2023-02-14T09:03:07.754Z,99498.91
2023-02-14T09:05:36.318Z,99501.53
2023-02-14T09:08:05.141Z,99502.47
2023-02-14T09:10:33.368Z,99505.03
2023-02-14T09:13:01.616Z,99504.16
2023-02-14T09:15:31.610Z,99510.47
2023-02-14T09:17:59.887Z,99511.38
2023-02-14T09:20:28.145Z,99509.66
2023-02-14T09:22:57.402Z,99511.38
2023-02-14T09:25:25.646Z,99510.97
2023-02-14T09:27:53.895Z,99511.91
2023-02-14T09:30:22.274Z,99515.47
2023-02-14T09:32:53.726Z,99514.59
2023-02-14T09:35:22.124Z,99509.28
2023-02-14T09:38:08.050Z,99510.91
2023-02-14T09:40:36.364Z,99502.09
2023-02-14T09:43:11.177Z,99509.78
2023-02-14T09:45:40.729Z,99502.59
2023-02-14T09:48:26.615Z,99492.88
2023-02-14T09:51:00.180Z,99485.78
2023-02-14T09:53:31.292Z,99494.47
2023-02-14T09:56:08.908Z,99490.00
2023-02-14T09:58:44.974Z,99490.72
2023-02-14T10:01:21.271Z,99494.19
2023-02-14T10:04:17.738Z,99498.47
2023-02-14T10:06:51.961Z,99492.25
2023-02-14T10:09:49.088Z,99497.38
2023-02-14T10:12:25.434Z,99491.13
2023-02-14T10:14:56.982Z,99497.25
2023-02-14T10:17:37.692Z,99487.59
2023-02-14T10:20:18.483Z,99499.81
2023-02-14T10:22:53.623Z,99495.78
2023-02-14T10:25:27.684Z,99493.94
2023-02-14T10:27:59.644Z,99500.06
2023-02-14T10:30:28.148Z,99495.72
2023-02-14T10:33:05.506Z,99495.78
2023-02-14T10:35:44.508Z,99491.25
2023-02-14T10:38:27.375Z,99492.97
2023-02-14T10:41:30.636Z,99482.34
2023-02-14T10:44:13.564Z,99485.75
2023-02-14T10:46:51.140Z,99480.31
2023-02-14T10:49:35.365Z,99474.84
2023-02-14T10:52:15.706Z,99470.34
2023-02-14T10:54:47.685Z,99472.78
2023-02-14T10:57:21.892Z,99470.94
2023-02-14T10:59:54.714Z,99468.19
2023-02-14T11:02:32.145Z,99461.94
2023-02-14T11:05:01.447Z,99460.03
2023-02-14T11:07:31.180Z,99462.44
2023-02-14T11:09:59.455Z,99455.28
2023-02-14T11:12:37.521Z,99456.09
2023-02-14T11:15:27.535Z,99457.00
2023-02-14T11:18:22.868Z,99444.72
2023-02-14T11:21:03.219Z,99441.16
2023-02-14T11:23:38.916Z,99452.53
2023-02-14T11:26:15.347Z,99436.69
2023-02-14T11:28:54.183Z,99438.34
2023-02-14T11:31:34.676Z,99434.06
2023-02-14T11:34:06.993Z,99434.81
2023-02-14T11:36:43.056Z,99432.19
2023-02-14T11:39:28.774Z,99430.38
2023-02-14T11:42:01.293Z,99429.47
2023-02-14T11:44:33.212Z,99420.81
2023-02-14T11:47:21.541Z,99414.06
2023-02-14T11:49:58.510Z,99415.09
2023-02-14T11:52:29.667Z,99408.88
2023-02-14T11:55:00.398Z,99409.63
2023-02-14T11:57:33.526Z,99407.06
2023-02-14T12:00:05.962Z,99408.81
2023-02-14T12:02:39.656Z,99405.31
2023-02-14T12:05:19.265Z,99402.75
2023-02-14T12:07:49.698Z,99395.59
2023-02-14T12:10:28.226Z,99400.72
2023-02-14T12:13:01.218Z,99398.03
2023-02-14T12:15:37.894Z,99391.75
2023-02-14T12:18:54.292Z,99390.63
2023-02-14T12:21:41.065Z,99389.78
2023-02-14T12:24:21.820Z,99387.03
2023-02-14T12:27:02.027Z,99381.78
2023-02-14T12:29:37.611Z,99378.22
2023-02-14T12:32:20.222Z,99375.38
2023-02-14T12:34:49.305Z,99371.75
2023-02-14T12:37:35.674Z,99368.06
2023-02-14T12:40:23.827Z,99362.66
2023-02-14T12:43:40.882Z,99359.91
2023-02-14T12:46:23.170Z,99366.84
2023-02-14T12:49:13.791Z,99358.91
2023-02-14T12:51:50.478Z,99363.16
2023-02-14T12:54:41.960Z,99351.63
2023-02-14T12:57:25.231Z,99352.41
2023-02-14T13:00:05.453Z,99354.03
2023-02-14T13:03:11.660Z,99347.81
2023-02-14T13:05:51.755Z,99344.25
2023-02-14T13:08:38.916Z,99351.13
2023-02-14T13:11:16.704Z,99344.88
2023-02-14T13:13:57.143Z,99342.09
2023-02-14T13:16:35.220Z,99331.44
2023-02-14T13:19:16.048Z,99338.25
2023-02-14T13:21:45.205Z,99333.94
2023-02-14T13:24:19.409Z,99331.22
2023-02-14T13:26:53.867Z,99327.66
2023-02-14T13:29:25.264Z,99318.81
2023-02-14T13:31:59.930Z,99326.72
2023-02-14T13:34:32.712Z,99318.72
2023-02-14T13:37:03.856Z,99313.38
2023-02-14T13:39:38.653Z,99303.81
2023-02-14T13:42:08.539Z,99304.59
2023-02-14T13:44:49.021Z,99300.94
2023-02-14T13:47:21.469Z,99303.56
2023-02-14T13:49:54.781Z,99296.63
2023-02-14T13:52:43.973Z,99305.25
2023-02-14T13:55:19.492Z,99299.09
2023-02-14T13:57:48.454Z,99297.31
2023-02-14T14:00:41.434Z,99305.97
2023-02-14T14:03:15.948Z,99298.94
2023-02-14T14:06:06.678Z,99298.78
2023-02-14T14:08:44.298Z,99299.56
2023-02-14T14:11:56.955Z,99306.69
2023-02-14T14:14:37.278Z,99313.72
2023-02-14T14:17:28.531Z,99301.56
2023-02-14T14:19:58.814Z,99310.38
2023-02-14T14:22:28.267Z,99309.47
2023-02-14T14:25:01.018Z,99299.78
2023-02-14T14:27:34.117Z,99302.41
2023-02-14T14:30:05.100Z,99296.25
2023-02-14T14:32:36.327Z,99288.34
2023-02-14T14:35:18.850Z,99290.91
2023-02-14T14:37:50.735Z,99289.97
2023-02-14T14:40:27.803Z,99287.34
2023-02-14T14:43:01.121Z,99279.44
2023-02-14T14:45:32.437Z,99278.34
2023-02-14T14:48:09.985Z,99275.72
2023-02-14T14:50:39.997Z,99267.84
2023-02-14T14:53:19.111Z,99274.88
2023-02-14T14:55:51.954Z,99264.34
2023-02-14T14:58:36.077Z,99262.66
2023-02-14T15:01:05.909Z,99256.53
2023-02-14T15:03:34.971Z,99251.25
2023-02-14T15:06:17.270Z,99251.25
2023-02-14T15:08:48.084Z,99252.03
2023-02-14T15:11:35.128Z,99246.88
2023-02-14T15:14:05.732Z,99249.50
2023-02-14T15:16:48.639Z,99247.88
2023-02-14T15:19:23.536Z,99245.25
2023-02-14T15:21:53.449Z,99250.91
2023-02-14T15:24:21.839Z,99248.34
2023-02-14T15:26:53.402Z,99241.38
2023-02-14T15:29:25.204Z,99244.94
2023-02-14T15:31:53.930Z,99253.75
2023-02-14T15:34:26.186Z,99256.38
2023-02-14T15:36:59.183Z,99252.88
2023-02-14T15:39:34.683Z,99245.88
2023-02-14T15:42:03.015Z,99259.94
2023-02-14T15:44:31.463Z,99253.91
2023-02-14T15:47:05.581Z,99256.63
2023-02-14T15:49:37.617Z,99255.78
2023-02-14T15:52:07.984Z,99257.75
2023-02-14T15:54:39.820Z,99258.72
2023-02-14T15:57:20.077Z,99264.13
2023-02-14T15:59:48.897Z,99258.34
2023-02-14T16:02:30.197Z,99262.88
2023-02-14T16:05:07.230Z,99256.09
2023-02-14T16:07:36.842Z,99269.31
2023-02-14T16:10:25.362Z,99263.47
2023-02-14T16:13:00.392Z,99261.06
2023-02-14T16:15:30.153Z,99260.25
2023-02-14T16:17:59.034Z,99258.59
2023-02-14T16:20:41.967Z,99266.69
2023-02-14T16:23:24.037Z,99266.09
2023-02-14T16:25:53.104Z,99263.59
2023-02-14T16:28:22.942Z,99268.22
2023-02-14T16:30:56.640Z,99272.75
2023-02-14T16:33:28.792Z,99280.69
2023-02-14T16:36:03.733Z,99275.66
2023-02-14T16:38:38.071Z,99279.22
2023-02-14T16:41:07.189Z,99272.28
2023-02-14T16:43:35.476Z,99275.72
2023-02-14T16:46:03.742Z,99278.28
2023-02-14T16:48:32.021Z,99282.56
2023-02-14T16:51:00.511Z,99281.56
2023-02-14T16:53:29.971Z,99286.66
2023-02-14T16:56:00.098Z,99280.56
2023-02-14T16:58:34.324Z,99284.84
2023-02-14T17:01:03.010Z,99288.28
2023-02-14T17:03:31.592Z,99287.38
2023-02-14T17:06:01.496Z,99292.56
2023-02-14T17:08:30.360Z,99289.94
2023-02-14T17:11:02.040Z,99289.16
2023-02-14T17:13:33.671Z,99293.75
2023-02-14T17:16:02.599Z,99285.94
2023-02-14T17:18:34.424Z,99294.91
2023-02-14T17:21:03.253Z,99287.16
2023-02-14T17:23:31.690Z,99291.69
2023-02-14T17:26:01.377Z,99299.75
2023-02-14T17:28:30.039Z,99299.91
2023-02-14T17:31:00.569Z,99292.91
2023-02-14T17:33:30.487Z,99302.66
2023-02-14T17:36:06.665Z,99296.63
2023-02-14T17:38:35.937Z,99301.16
2023-02-14T17:41:14.719Z,99298.72
2023-02-14T17:43:43.093Z,99296.25
2023-02-14T17:46:11.539Z,99297.25
2023-02-14T17:48:39.804Z,99299.22
2023-02-14T17:51:10.275Z,99298.59
2023-02-14T17:53:41.447Z,99290.97
2023-02-14T17:56:14.652Z,99287.06
2023-02-14T17:58:42.951Z,99285.34
2023-02-14T18:01:13.146Z,99286.34
2023-02-14T18:03:42.116Z,99284.56
2023-02-14T18:06:11.990Z,99281.16
2023-02-14T18:08:43.300Z,99282.16
2023-02-14T18:11:14.589Z,99276.13
2023-02-14T18:13:43.217Z,99279.72
2023-02-14T18:16:14.969Z,99272.81
2023-02-14T18:18:43.373Z,99271.25
2023-02-14T18:21:14.888Z,99267.78
2023-02-14T18:23:43.817Z,99269.72
2023-02-14T18:26:16.872Z,99269.84
2023-02-14T18:28:45.496Z,99271.72
2023-02-14T18:31:16.594Z,99267.53
2023-02-14T18:33:46.025Z,99268.50
2023-02-14T18:36:16.917Z,99270.38
2023-02-14T18:38:47.154Z,99278.56
2023-02-14T18:41:19.933Z,99279.69
2023-02-14T18:43:49.092Z,99273.91
2023-02-14T18:46:19.765Z,99273.09
2023-02-14T18:48:48.588Z,99278.47
2023-02-14T18:51:19.139Z,99273.34
2023-02-14T18:53:48.333Z,99282.16
2023-02-14T18:56:21.045Z,99278.66
2023-02-14T18:58:52.860Z,99275.22
2023-02-14T19:01:24.638Z,99276.91
2023-02-14T19:03:54.609Z,99270.84
2023-02-14T19:06:23.377Z,99268.25
2023-02-14T19:08:51.648Z,99269.97
2023-02-14T19:11:23.800Z,99274.34
2023-02-14T19:13:55.009Z,99276.03
2023-02-14T19:16:27.553Z,99270.84
2023-02-14T19:18:56.341Z,99269.09
2023-02-14T19:21:27.133Z,99263.00
2023-02-14T19:23:57.565Z,99252.44
2023-02-14T19:26:30.242Z,99255.06
2023-02-14T19:29:02.705Z,99255.94
2023-02-14T19:31:31.551Z,99258.47
2023-02-14T19:33:59.886Z,99248.94
2023-02-14T19:36:28.161Z,99257.63
2023-02-14T19:38:58.145Z,99248.06
2023-02-14T19:41:31.650Z,99251.53
2023-02-14T19:44:00.622Z,99256.78
2023-02-14T19:46:30.554Z,99255.00
2023-02-14T19:48:59.988Z,99254.94
2023-02-14T19:51:30.253Z,99254.16
2023-02-14T19:54:01.194Z,99256.84
2023-02-14T19:56:34.534Z,99248.19
2023-02-14T19:59:07.736Z,99254.28
2023-02-14T20:01:39.509Z,99248.19
2023-02-14T20:04:10.978Z,99253.44
2023-02-14T20:06:39.797Z,99251.81
2023-02-14T20:09:09.260Z,99254.50
2023-02-14T20:11:42.383Z,99249.38
2023-02-14T20:14:10.655Z,99245.94
2023-02-14T20:16:39.347Z,99253.94
2023-02-14T20:19:12.080Z,99251.38
2023-02-14T20:21:42.638Z,99256.63
2023-02-14T20:24:12.331Z,99250.47
2023-02-14T20:26:42.306Z,99253.00
2023-02-14T20:29:11.703Z,99249.44
2023-02-14T20:31:43.750Z,99248.50
2023-02-14T20:34:12.861Z,99250.13
2023-02-14T20:36:42.163Z,99238.75
2023-02-14T20:39:13.807Z,99242.16
2023-02-14T20:41:48.335Z,99240.47
2023-02-14T20:44:19.778Z,99236.91
2023-02-14T20:46:49.205Z,99235.22
2023-02-14T20:49:17.483Z,99222.09
2023-02-14T20:51:46.525Z,99228.28
2023-02-14T20:54:14.867Z,99227.41
2023-02-14T20:56:44.457Z,99222.31
2023-02-14T20:59:12.994Z,99224.97
2023-02-14T21:01:41.659Z,99222.44
2023-02-14T21:04:10.129Z,99224.19
2023-02-14T21:06:39.967Z,99210.31
2023-02-14T21:09:08.646Z,99214.69
2023-02-14T21:11:36.938Z,99214.69
2023-02-14T21:14:06.575Z,99213.00
2023-02-14T21:16:34.858Z,99218.44
2023-02-14T21:19:04.182Z,99207.16
2023-02-14T21:21:36.115Z,99216.00
2023-02-14T21:24:07.980Z,99210.88
2023-02-14T21:26:36.383Z,99210.03
2023-02-14T21:29:07.158Z,99211.94
2023-02-14T21:31:35.845Z,99211.13
2023-02-14T21:34:04.955Z,99205.03
2023-02-14T21:36:36.391Z,99199.03
2023-02-14T21:39:06.725Z,99203.34
2023-02-14T21:41:36.740Z,99202.41
2023-02-14T21:44:07.509Z,99199.03
2023-02-14T21:46:38.878Z,99195.53
2023-02-14T21:49:25.372Z,99196.53
2023-02-14T21:51:53.715Z,99190.56
2023-02-14T21:54:22.005Z,99185.44
2023-02-14T21:56:50.395Z,99181.16
2023-02-14T21:59:20.012Z,99184.69
2023-02-14T22:01:48.282Z,99183.09
2023-02-14T22:04:16.552Z,99177.81
2023-02-14T22:06:44.865Z,99183.09
2023-02-14T22:09:17.414Z,99178.84
2023-02-14T22:11:47.531Z,99168.38
2023-02-14T22:14:16.172Z,99167.59
2023-02-14T22:16:45.780Z,99163.28
2023-02-14T22:19:16.861Z,99159.72
2023-02-14T22:21:45.303Z,99166.66
2023-02-14T22:24:14.112Z,99160.53
2023-02-14T22:26:42.509Z,99166.53
2023-02-14T22:29:13.649Z,99163.91
2023-02-14T22:31:45.437Z,99163.09
2023-02-14T22:34:17.831Z,99169.16
2023-02-14T22:36:46.175Z,99173.56
2023-02-14T22:39:16.283Z,99165.63
2023-02-14T22:41:44.974Z,99164.78
2023-02-14T22:44:14.549Z,99162.22
2023-02-14T22:46:43.474Z,99165.81
2023-02-14T22:49:14.401Z,99161.53
2023-02-14T22:51:45.004Z,99151.19
2023-02-14T22:54:15.294Z,99158.28
2023-02-14T22:56:45.788Z,99152.31
2023-02-14T22:59:19.809Z,99153.28
2023-02-14T23:01:49.768Z,99151.66
2023-02-14T23:04:22.608Z,99154.41
2023-02-14T23:06:52.259Z,99141.50
2023-02-14T23:09:21.305Z,99147.63
2023-02-14T23:11:50.869Z,99140.88
2023-02-14T23:14:37.446Z,99147.81
2023-02-14T23:17:24.377Z,99145.50
2023-02-14T23:20:11.742Z,99150.91
2023-02-14T23:22:41.765Z,99145.03
2023-02-14T23:25:12.507Z,99143.53
2023-02-14T23:27:43.047Z,99144.53
2023-02-14T23:30:14.424Z,99143.75
2023-02-14T23:32:42.941Z,99142.91
2023-02-14T23:35:12.640Z,99136.84
2023-02-14T23:37:41.747Z,99130.75
2023-02-14T23:40:11.207Z,99135.16
2023-02-14T23:42:39.501Z,99130.91
2023-02-14T23:45:26.663Z,99134.53
2023-02-14T23:47:54.981Z,99120.75
2023-02-14T23:50:24.637Z,99123.38
2023-02-14T23:52:52.885Z,99125.91
2023-02-14T23:55:21.156Z,99137.22
2023-02-14T23:57:49.451Z,99132.84
